Accueil
METAR-TAF:

METAR-TAF

Aéroports :

Aéroport international de Wattay

Vientiane, Laos

latitude: 17-57N, longitude: 102-34E, altitude: 171 m

Observation

Le bulletin a été fait il y a 19 minutes, à 02:00 UTC
Vent 4 kt de nord/nord-ouest
Température 25°C
Humidité 79%
Pression 1012 hPa
Visibilité: 5000 m
Nuages épars à une hauteur de 20000 ft
brume

METAR: VLVT 230200Z 34004KT 5000 BR SCT200 25/21 Q1012 NOSIG

Heure: 09:19 (02:19 UTC)

Prévision

Le bulletin a été fait il y a 3 heures et 19 minutes, à 23:00 UTC
Prévision valable du 23 à 00 UTC au 23 à 24 UTC
Vent 4 kt de ouest
Visibilité: 5000 m
Quelques nuages à une hauteur de 5000 ft
Nuages épars à une hauteur de 20000 ft
brume
Temporairement
du 23 à 06 UTC au 23 à 10 UTC
Visibilité: 8000 m
Quelques nuages à une hauteur de 2000 ft
Quelques nuages à une hauteur de 20000 ft

TAF: VLVT 222300Z 2300/2324 27004KT 5000 BR FEW050 SCT200 TEMPO 2306/2310 8000 FEW020 FEW200

Observations et prévisions météorologiques de plus de 4000 aéroports (messages METAR et TAF).

Les stations disponibles sont représentées par des disques jaunes et rouges sur la carte.

Passer la souris dessus pour voir le nom de la station.

Cliquer dessus pour voir les observations et prévisions météorologiques.

Pour changer de carte: cliquez sur les boutons verts avec une croix noire pour zoomer, sur le bouton vert avec un tiret pour effectuer un zoom arrière, ou sur les flèches vertes pour les cartes adjacentes.


METAR-TAF: